Aérodrome :
LOGIN :

S'inscrire | Disclaimer

   EN    FR    IT 

 










Légende :    VFR   VFR Marginal   IFR   IFR Intensif   IFR Très Intensif
Visi : 
Plafond : 
>= 8 km
>= 3000ft
5 à 8 km
1000 à 3000 ft
1500m à 5 km
500 à 1000 ft
800 à 1500m
200 à 500 ft
< 800m
< 200 ft
Symboles :   Orages  Brouillard  Fortes neiges  Fortes précipitations  Vent > 20 kt
SIGMETs :   Divers  Orages  Givrage  Turbulence  Onde Orograph.  Cendres Volcan.







- Altitude de l'aérodrome : 220 ft
- Code IATA : CWL
- Voir les cartes d'approche


EGFF - Cardiff Rhoose

DERNIER METAR :
  • 192050Z AUTO 29011KT 0350 R30/1200 FG VV/// 10/10 Q1025

METARs EXPIRÉS :
  • 192020Z AUTO 28012KT 0300 R30/1200 FG BKN002 OVC018 10/10 Q1024
  • 191950Z 29012KT 2400 BR SCT001 OVC002 11/10 Q1024
  • 191920Z AUTO 29009KT 9999 OVC003 11/10 Q1024
  • 191850Z 29011KT 9999 FEW003 SCT006 11/10 Q1024
  • 191820Z AUTO 29012KT 9999 NCD 12/11 Q1024

TAF AMD TAF EGFF
Valide du 19 à 20h jusqu'au 20 à 18h UTC


192020Z 1920/2018 28008KT 9999 FEW025
TEMPO 1920/1923 0300 FG BKN001
BECMG 1923/2002 2000 BR BKN002
PROB40
TEMPO 1923/2007 0300 FG BKN001
BECMG 2007/2010 9999 NSW FEW015
ATIS : +44 1446 729 319
Pas de NOTAMs connus pour ce terrain.



MET'MAP, la Météo Aéronautique d'un coup d'oeil ! - Copyright ORBIFLY Décembre 2007 - Disclaimer

ORBIFLY MET'MAP TEAM :

Programmation & Développement : Alexandra Zaïnal
Conception & Développement : Baudouin d'Aumeries
Co-Programmation & Développement : Marc-Olivier Méhu
Soutien technique & logistique : Manuel Goepfert

Contact : metmap@orbifly.com




SOURCES & CREDITS :

   NOAA